sensor_id;sensor_type;location;lat;lon;timestamp;P1;durP1;ratioP1;P2;durP2;ratioP2
75814;SDS011;70031;45.570;14.228;2023-06-10T00:00:52;7.35;;;4.47;;
75814;SDS011;70031;45.570;14.228;2023-06-10T00:03:15;9.23;;;3.63;;
75814;SDS011;70031;45.570;14.228;2023-06-10T00:05:35;6.88;;;3.95;;
75814;SDS011;70031;45.570;14.228;2023-06-10T00:07:52;17.13;;;4.43;;
75814;SDS011;70031;45.570;14.228;2023-06-10T00:12:22;10.60;;;3.97;;
75814;SDS011;70031;45.570;14.228;2023-06-10T00:14:39;18.15;;;4.78;;
75814;SDS011;70031;45.570;14.228;2023-06-10T00:17:01;12.65;;;4.20;;
75814;SDS011;70031;45.570;14.228;2023-06-10T00:19:03;10.68;;;4.60;;
75814;SDS011;70031;45.570;14.228;2023-06-10T00:21:05;7.50;;;4.43;;
75814;SDS011;70031;45.570;14.228;2023-06-10T00:23:05;10.60;;;3.80;;
75814;SDS011;70031;45.570;14.228;2023-06-10T00:27:10;15.13;;;3.92;;
75814;SDS011;70031;45.570;14.228;2023-06-10T00:29:11;11.18;;;3.92;;
75814;SDS011;70031;45.570;14.228;2023-06-10T00:31:11;5.93;;;3.85;;
75814;SDS011;70031;45.570;14.228;2023-06-10T00:33:12;12.43;;;3.83;;
75814;SDS011;70031;45.570;14.228;2023-06-10T00:35:12;12.23;;;4.38;;
75814;SDS011;70031;45.570;14.228;2023-06-10T00:37:12;8.00;;;3.80;;
75814;SDS011;70031;45.570;14.228;2023-06-10T00:39:14;12.32;;;3.90;;
75814;SDS011;70031;45.570;14.228;2023-06-10T00:41:14;14.63;;;4.22;;
75814;SDS011;70031;45.570;14.228;2023-06-10T00:43:15;9.88;;;3.92;;
75814;SDS011;70031;45.570;14.228;2023-06-10T00:45:15;9.43;;;3.97;;
75814;SDS011;70031;45.570;14.228;2023-06-10T00:47:16;5.45;;;3.53;;
75814;SDS011;70031;45.570;14.228;2023-06-10T00:49:17;7.60;;;3.78;;
75814;SDS011;70031;45.570;14.228;2023-06-10T00:51:17;7.75;;;3.58;;
75814;SDS011;70031;45.570;14.228;2023-06-10T00:53:19;10.05;;;3.60;;
75814;SDS011;70031;45.570;14.228;2023-06-10T00:55:20;11.43;;;3.70;;
75814;SDS011;70031;45.570;14.228;2023-06-10T00:57:21;7.72;;;3.67;;
75814;SDS011;70031;45.570;14.228;2023-06-10T00:59:21;7.18;;;3.22;;
75814;SDS011;70031;45.570;14.228;2023-06-10T01:01:22;8.82;;;3.47;;
75814;SDS011;70031;45.570;14.228;2023-06-10T01:03:22;12.90;;;3.78;;
75814;SDS011;70031;45.570;14.228;2023-06-10T01:05:23;10.23;;;4.18;;
75814;SDS011;70031;45.570;14.228;2023-06-10T01:07:25;8.73;;;4.57;;
75814;SDS011;70031;45.570;14.228;2023-06-10T01:09:41;10.77;;;4.55;;
75814;SDS011;70031;45.570;14.228;2023-06-10T01:14:12;14.70;;;4.35;;
75814;SDS011;70031;45.570;14.228;2023-06-10T01:16:14;8.50;;;4.68;;
75814;SDS011;70031;45.570;14.228;2023-06-10T01:18:14;15.30;;;4.88;;
75814;SDS011;70031;45.570;14.228;2023-06-10T01:20:15;15.35;;;4.82;;
75814;SDS011;70031;45.570;14.228;2023-06-10T01:22:15;15.10;;;5.05;;
75814;SDS011;70031;45.570;14.228;2023-06-10T01:24:16;30.20;;;5.75;;
75814;SDS011;70031;45.570;14.228;2023-06-10T01:26:18;8.73;;;5.03;;
75814;SDS011;70031;45.570;14.228;2023-06-10T01:30:22;19.73;;;5.63;;
75814;SDS011;70031;45.570;14.228;2023-06-10T01:32:32;24.65;;;5.57;;
75814;SDS011;70031;45.570;14.228;2023-06-10T01:34:37;13.55;;;5.15;;
75814;SDS011;70031;45.570;14.228;2023-06-10T01:36:40;21.17;;;5.00;;
75814;SDS011;70031;45.570;14.228;2023-06-10T01:38:44;8.65;;;4.65;;
75814;SDS011;70031;45.570;14.228;2023-06-10T01:40:46;17.30;;;5.43;;
75814;SDS011;70031;45.570;14.228;2023-06-10T01:42:48;15.02;;;4.65;;
75814;SDS011;70031;45.570;14.228;2023-06-10T01:44:48;6.07;;;4.22;;
75814;SDS011;70031;45.570;14.228;2023-06-10T01:46:49;10.52;;;5.00;;
75814;SDS011;70031;45.570;14.228;2023-06-10T01:48:49;11.25;;;4.65;;
75814;SDS011;70031;45.570;14.228;2023-06-10T01:50:49;6.22;;;4.57;;
75814;SDS011;70031;45.570;14.228;2023-06-10T01:52:50;10.40;;;4.20;;
75814;SDS011;70031;45.570;14.228;2023-06-10T01:54:50;10.95;;;4.70;;
75814;SDS011;70031;45.570;14.228;2023-06-10T01:56:51;10.57;;;4.40;;
75814;SDS011;70031;45.570;14.228;2023-06-10T01:58:51;11.13;;;4.22;;
75814;SDS011;70031;45.570;14.228;2023-06-10T02:00:55;21.30;;;3.75;;
75814;SDS011;70031;45.570;14.228;2023-06-10T02:02:55;13.15;;;4.10;;
75814;SDS011;70031;45.570;14.228;2023-06-10T02:04:55;13.48;;;4.18;;
75814;SDS011;70031;45.570;14.228;2023-06-10T02:06:57;14.82;;;4.70;;
75814;SDS011;70031;45.570;14.228;2023-06-10T02:08:57;13.93;;;4.13;;
75814;SDS011;70031;45.570;14.228;2023-06-10T02:10:57;9.25;;;4.22;;
75814;SDS011;70031;45.570;14.228;2023-06-10T02:12:58;10.90;;;4.10;;
75814;SDS011;70031;45.570;14.228;2023-06-10T02:14:58;7.70;;;4.30;;
75814;SDS011;70031;45.570;14.228;2023-06-10T02:16:58;8.57;;;3.58;;
75814;SDS011;70031;45.570;14.228;2023-06-10T02:18:59;13.52;;;4.32;;
75814;SDS011;70031;45.570;14.228;2023-06-10T02:21:00;6.82;;;4.13;;
75814;SDS011;70031;45.570;14.228;2023-06-10T02:23:00;8.70;;;3.70;;
75814;SDS011;70031;45.570;14.228;2023-06-10T02:25:01;13.00;;;4.38;;
75814;SDS011;70031;45.570;14.228;2023-06-10T02:27:01;10.02;;;4.18;;
75814;SDS011;70031;45.570;14.228;2023-06-10T02:29:03;6.63;;;4.05;;
75814;SDS011;70031;45.570;14.228;2023-06-10T02:31:03;11.93;;;3.65;;
75814;SDS011;70031;45.570;14.228;2023-06-10T02:33:04;6.20;;;3.80;;
75814;SDS011;70031;45.570;14.228;2023-06-10T02:35:05;10.85;;;4.05;;
75814;SDS011;70031;45.570;14.228;2023-06-10T02:37:05;9.38;;;4.22;;
75814;SDS011;70031;45.570;14.228;2023-06-10T02:39:06;6.82;;;4.07;;
75814;SDS011;70031;45.570;14.228;2023-06-10T02:41:06;11.88;;;3.97;;
75814;SDS011;70031;45.570;14.228;2023-06-10T02:43:07;10.48;;;4.30;;
75814;SDS011;70031;45.570;14.228;2023-06-10T02:45:07;11.10;;;4.57;;
75814;SDS011;70031;45.570;14.228;2023-06-10T02:47:08;14.90;;;4.30;;
75814;SDS011;70031;45.570;14.228;2023-06-10T02:49:08;12.48;;;4.40;;
75814;SDS011;70031;45.570;14.228;2023-06-10T02:51:09;8.82;;;4.60;;
75814;SDS011;70031;45.570;14.228;2023-06-10T02:53:10;20.85;;;4.60;;
75814;SDS011;70031;45.570;14.228;2023-06-10T02:55:10;19.15;;;4.43;;
75814;SDS011;70031;45.570;14.228;2023-06-10T02:57:11;10.88;;;4.68;;
75814;SDS011;70031;45.570;14.228;2023-06-10T02:59:11;9.98;;;4.43;;
75814;SDS011;70031;45.570;14.228;2023-06-10T03:01:12;19.70;;;4.47;;
75814;SDS011;70031;45.570;14.228;2023-06-10T03:03:13;16.85;;;4.57;;
75814;SDS011;70031;45.570;14.228;2023-06-10T03:05:14;11.77;;;4.55;;
75814;SDS011;70031;45.570;14.228;2023-06-10T03:07:14;11.20;;;4.72;;
75814;SDS011;70031;45.570;14.228;2023-06-10T03:09:15;11.88;;;4.75;;
75814;SDS011;70031;45.570;14.228;2023-06-10T03:11:15;16.38;;;4.40;;
75814;SDS011;70031;45.570;14.228;2023-06-10T03:13:15;14.45;;;5.30;;
75814;SDS011;70031;45.570;14.228;2023-06-10T03:15:16;10.15;;;4.70;;
75814;SDS011;70031;45.570;14.228;2023-06-10T03:17:17;15.65;;;5.15;;
75814;SDS011;70031;45.570;14.228;2023-06-10T03:19:17;8.68;;;5.32;;
75814;SDS011;70031;45.570;14.228;2023-06-10T03:21:17;12.80;;;5.22;;
75814;SDS011;70031;45.570;14.228;2023-06-10T03:23:18;15.10;;;6.05;;
75814;SDS011;70031;45.570;14.228;2023-06-10T03:25:18;17.02;;;6.70;;
75814;SDS011;70031;45.570;14.228;2023-06-10T03:27:20;17.45;;;6.75;;
75814;SDS011;70031;45.570;14.228;2023-06-10T03:29:20;8.88;;;6.30;;
75814;SDS011;70031;45.570;14.228;2023-06-10T03:31:21;18.65;;;6.38;;
75814;SDS011;70031;45.570;14.228;2023-06-10T03:33:21;23.48;;;5.78;;
75814;SDS011;70031;45.570;14.228;2023-06-10T03:35:22;12.88;;;6.15;;
75814;SDS011;70031;45.570;14.228;2023-06-10T03:37:23;9.18;;;5.72;;
75814;SDS011;70031;45.570;14.228;2023-06-10T03:39:24;20.33;;;6.50;;
75814;SDS011;70031;45.570;14.228;2023-06-10T03:41:25;8.82;;;6.22;;
75814;SDS011;70031;45.570;14.228;2023-06-10T03:43:26;14.50;;;6.47;;
75814;SDS011;70031;45.570;14.228;2023-06-10T03:45:27;12.52;;;6.22;;
75814;SDS011;70031;45.570;14.228;2023-06-10T03:47:34;12.00;;;5.32;;
75814;SDS011;70031;45.570;14.228;2023-06-10T03:49:38;8.85;;;5.93;;
75814;SDS011;70031;45.570;14.228;2023-06-10T03:51:40;13.40;;;6.55;;
75814;SDS011;70031;45.570;14.228;2023-06-10T03:53:40;28.52;;;6.32;;
75814;SDS011;70031;45.570;14.228;2023-06-10T03:55:41;16.05;;;6.45;;
75814;SDS011;70031;45.570;14.228;2023-06-10T03:57:41;24.83;;;5.90;;
75814;SDS011;70031;45.570;14.228;2023-06-10T03:59:42;23.52;;;5.90;;
75814;SDS011;70031;45.570;14.228;2023-06-10T04:01:42;27.42;;;5.43;;
75814;SDS011;70031;45.570;14.228;2023-06-10T04:03:43;32.35;;;6.45;;
75814;SDS011;70031;45.570;14.228;2023-06-10T04:05:44;30.02;;;6.25;;
75814;SDS011;70031;45.570;14.228;2023-06-10T04:07:44;25.60;;;5.68;;
75814;SDS011;70031;45.570;14.228;2023-06-10T04:09:45;18.40;;;6.30;;
75814;SDS011;70031;45.570;14.228;2023-06-10T04:11:46;27.38;;;6.28;;
75814;SDS011;70031;45.570;14.228;2023-06-10T04:13:48;32.90;;;6.90;;
75814;SDS011;70031;45.570;14.228;2023-06-10T04:15:49;43.42;;;6.35;;
75814;SDS011;70031;45.570;14.228;2023-06-10T04:17:49;39.17;;;6.57;;
75814;SDS011;70031;45.570;14.228;2023-06-10T04:19:50;34.05;;;7.22;;
75814;SDS011;70031;45.570;14.228;2023-06-10T04:21:50;43.47;;;6.70;;
75814;SDS011;70031;45.570;14.228;2023-06-10T04:23:50;43.92;;;7.70;;
75814;SDS011;70031;45.570;14.228;2023-06-10T04:25:51;41.75;;;7.25;;
75814;SDS011;70031;45.570;14.228;2023-06-10T04:27:51;29.42;;;7.72;;
75814;SDS011;70031;45.570;14.228;2023-06-10T04:29:52;18.83;;;7.25;;
75814;SDS011;70031;45.570;14.228;2023-06-10T04:31:52;17.25;;;7.13;;
75814;SDS011;70031;45.570;14.228;2023-06-10T04:33:53;34.20;;;8.38;;
75814;SDS011;70031;45.570;14.228;2023-06-10T04:35:53;37.22;;;8.63;;
75814;SDS011;70031;45.570;14.228;2023-06-10T04:37:53;29.20;;;9.43;;
75814;SDS011;70031;45.570;14.228;2023-06-10T04:39:54;29.70;;;8.75;;
75814;SDS011;70031;45.570;14.228;2023-06-10T04:41:54;54.63;;;9.93;;
75814;SDS011;70031;45.570;14.228;2023-06-10T04:43:55;31.75;;;7.95;;
75814;SDS011;70031;45.570;14.228;2023-06-10T04:45:55;40.35;;;8.98;;
75814;SDS011;70031;45.570;14.228;2023-06-10T04:49:59;38.72;;;8.93;;
75814;SDS011;70031;45.570;14.228;2023-06-10T04:52:00;47.50;;;8.75;;
75814;SDS011;70031;45.570;14.228;2023-06-10T04:54:00;45.38;;;9.52;;
75814;SDS011;70031;45.570;14.228;2023-06-10T04:56:03;31.48;;;8.38;;
75814;SDS011;70031;45.570;14.228;2023-06-10T04:58:04;32.58;;;7.85;;
75814;SDS011;70031;45.570;14.228;2023-06-10T05:00:04;21.77;;;7.47;;
75814;SDS011;70031;45.570;14.228;2023-06-10T05:02:06;16.67;;;7.82;;
75814;SDS011;70031;45.570;14.228;2023-06-10T05:04:06;32.60;;;8.82;;
75814;SDS011;70031;45.570;14.228;2023-06-10T05:06:06;12.25;;;7.68;;
75814;SDS011;70031;45.570;14.228;2023-06-10T05:08:07;18.35;;;7.75;;
75814;SDS011;70031;45.570;14.228;2023-06-10T05:10:08;17.88;;;7.97;;
75814;SDS011;70031;45.570;14.228;2023-06-10T05:12:09;16.73;;;8.15;;
75814;SDS011;70031;45.570;14.228;2023-06-10T05:14:09;27.73;;;7.72;;
75814;SDS011;70031;45.570;14.228;2023-06-10T05:16:10;16.42;;;7.10;;
75814;SDS011;70031;45.570;14.228;2023-06-10T05:18:11;19.25;;;7.22;;
75814;SDS011;70031;45.570;14.228;2023-06-10T05:20:12;14.90;;;7.38;;
75814;SDS011;70031;45.570;14.228;2023-06-10T05:22:13;22.00;;;6.70;;
75814;SDS011;70031;45.570;14.228;2023-06-10T05:24:16;18.15;;;6.63;;
75814;SDS011;70031;45.570;14.228;2023-06-10T05:26:16;13.85;;;6.45;;
75814;SDS011;70031;45.570;14.228;2023-06-10T05:28:17;15.70;;;6.70;;
75814;SDS011;70031;45.570;14.228;2023-06-10T05:30:18;11.77;;;6.35;;
75814;SDS011;70031;45.570;14.228;2023-06-10T05:32:18;21.98;;;6.88;;
75814;SDS011;70031;45.570;14.228;2023-06-10T05:34:19;18.15;;;6.85;;
75814;SDS011;70031;45.570;14.228;2023-06-10T05:36:19;20.70;;;7.50;;
75814;SDS011;70031;45.570;14.228;2023-06-10T05:38:22;11.80;;;7.20;;
75814;SDS011;70031;45.570;14.228;2023-06-10T05:40:23;16.30;;;7.60;;
75814;SDS011;70031;45.570;14.228;2023-06-10T05:42:23;18.52;;;7.38;;
75814;SDS011;70031;45.570;14.228;2023-06-10T05:44:24;16.58;;;7.45;;
75814;SDS011;70031;45.570;14.228;2023-06-10T05:46:24;15.27;;;7.35;;
75814;SDS011;70031;45.570;14.228;2023-06-10T05:48:25;24.30;;;7.63;;
75814;SDS011;70031;45.570;14.228;2023-06-10T05:50:25;24.25;;;8.35;;
75814;SDS011;70031;45.570;14.228;2023-06-10T05:52:26;18.15;;;8.20;;
75814;SDS011;70031;45.570;14.228;2023-06-10T05:54:26;23.17;;;9.40;;
75814;SDS011;70031;45.570;14.228;2023-06-10T05:56:27;24.98;;;8.75;;
75814;SDS011;70031;45.570;14.228;2023-06-10T05:58:27;21.08;;;8.63;;
75814;SDS011;70031;45.570;14.228;2023-06-10T06:00:28;17.10;;;8.75;;
75814;SDS011;70031;45.570;14.228;2023-06-10T06:02:28;18.33;;;8.52;;
75814;SDS011;70031;45.570;14.228;2023-06-10T06:04:28;24.17;;;9.43;;
75814;SDS011;70031;45.570;14.228;2023-06-10T06:06:29;17.83;;;8.30;;
75814;SDS011;70031;45.570;14.228;2023-06-10T06:08:29;21.63;;;10.38;;
75814;SDS011;70031;45.570;14.228;2023-06-10T06:10:30;20.65;;;10.77;;
75814;SDS011;70031;45.570;14.228;2023-06-10T06:12:31;17.65;;;9.27;;
75814;SDS011;70031;45.570;14.228;2023-06-10T06:14:31;19.77;;;10.43;;
75814;SDS011;70031;45.570;14.228;2023-06-10T06:16:32;18.27;;;10.13;;
75814;SDS011;70031;45.570;14.228;2023-06-10T06:18:33;17.92;;;9.48;;
75814;SDS011;70031;45.570;14.228;2023-06-10T06:20:33;19.48;;;10.10;;
75814;SDS011;70031;45.570;14.228;2023-06-10T06:22:33;25.33;;;10.20;;
75814;SDS011;70031;45.570;14.228;2023-06-10T06:24:34;18.85;;;9.25;;
75814;SDS011;70031;45.570;14.228;2023-06-10T06:26:34;17.70;;;9.30;;
75814;SDS011;70031;45.570;14.228;2023-06-10T06:28:35;17.75;;;8.05;;
75814;SDS011;70031;45.570;14.228;2023-06-10T06:30:35;14.45;;;7.82;;
75814;SDS011;70031;45.570;14.228;2023-06-10T06:32:36;13.60;;;8.52;;
75814;SDS011;70031;45.570;14.228;2023-06-10T06:34:36;17.45;;;8.32;;
75814;SDS011;70031;45.570;14.228;2023-06-10T06:36:36;11.82;;;6.75;;
75814;SDS011;70031;45.570;14.228;2023-06-10T06:38:37;11.63;;;7.53;;
75814;SDS011;70031;45.570;14.228;2023-06-10T06:40:37;9.65;;;6.32;;
75814;SDS011;70031;45.570;14.228;2023-06-10T06:42:37;11.23;;;6.55;;
75814;SDS011;70031;45.570;14.228;2023-06-10T06:44:38;8.45;;;5.45;;
75814;SDS011;70031;45.570;14.228;2023-06-10T06:46:38;10.05;;;6.40;;
75814;SDS011;70031;45.570;14.228;2023-06-10T06:48:38;9.80;;;5.80;;
75814;SDS011;70031;45.570;14.228;2023-06-10T06:50:39;9.40;;;6.07;;
75814;SDS011;70031;45.570;14.228;2023-06-10T06:52:41;8.52;;;6.00;;
75814;SDS011;70031;45.570;14.228;2023-06-10T06:54:42;9.18;;;6.13;;
75814;SDS011;70031;45.570;14.228;2023-06-10T06:56:42;12.30;;;5.53;;
75814;SDS011;70031;45.570;14.228;2023-06-10T06:58:42;7.40;;;4.80;;
75814;SDS011;70031;45.570;14.228;2023-06-10T07:00:43;6.63;;;4.60;;
75814;SDS011;70031;45.570;14.228;2023-06-10T07:02:43;7.78;;;5.15;;
75814;SDS011;70031;45.570;14.228;2023-06-10T07:04:44;8.93;;;5.82;;
75814;SDS011;70031;45.570;14.228;2023-06-10T07:06:45;7.28;;;5.25;;
75814;SDS011;70031;45.570;14.228;2023-06-10T07:08:51;8.00;;;5.68;;
75814;SDS011;70031;45.570;14.228;2023-06-10T07:10:52;7.57;;;5.50;;
75814;SDS011;70031;45.570;14.228;2023-06-10T07:12:53;7.22;;;4.90;;
75814;SDS011;70031;45.570;14.228;2023-06-10T07:14:53;8.75;;;5.85;;
75814;SDS011;70031;45.570;14.228;2023-06-10T07:16:54;7.45;;;4.80;;
75814;SDS011;70031;45.570;14.228;2023-06-10T07:18:54;7.35;;;5.10;;
75814;SDS011;70031;45.570;14.228;2023-06-10T07:20:55;7.38;;;4.60;;
75814;SDS011;70031;45.570;14.228;2023-06-10T07:23:01;6.97;;;4.40;;
75814;SDS011;70031;45.570;14.228;2023-06-10T07:25:02;8.52;;;4.90;;
75814;SDS011;70031;45.570;14.228;2023-06-10T07:27:03;8.98;;;4.90;;
75814;SDS011;70031;45.570;14.228;2023-06-10T07:29:03;7.00;;;4.50;;
75814;SDS011;70031;45.570;14.228;2023-06-10T07:31:04;8.63;;;4.75;;
75814;SDS011;70031;45.570;14.228;2023-06-10T07:33:07;5.70;;;3.50;;
75814;SDS011;70031;45.570;14.228;2023-06-10T07:35:11;6.80;;;4.32;;
75814;SDS011;70031;45.570;14.228;2023-06-10T07:37:12;6.28;;;4.20;;
75814;SDS011;70031;45.570;14.228;2023-06-10T07:39:12;6.60;;;4.32;;
75814;SDS011;70031;45.570;14.228;2023-06-10T07:41:12;6.97;;;4.45;;
75814;SDS011;70031;45.570;14.228;2023-06-10T07:43:14;7.72;;;4.55;;
75814;SDS011;70031;45.570;14.228;2023-06-10T07:45:14;6.07;;;4.15;;
75814;SDS011;70031;45.570;14.228;2023-06-10T07:47:15;6.00;;;4.07;;
75814;SDS011;70031;45.570;14.228;2023-06-10T07:49:15;7.40;;;4.70;;
75814;SDS011;70031;45.570;14.228;2023-06-10T07:51:16;7.50;;;4.40;;
75814;SDS011;70031;45.570;14.228;2023-06-10T07:53:21;7.63;;;3.90;;
75814;SDS011;70031;45.570;14.228;2023-06-10T07:55:21;5.85;;;3.67;;
75814;SDS011;70031;45.570;14.228;2023-06-10T07:57:21;5.65;;;3.65;;
75814;SDS011;70031;45.570;14.228;2023-06-10T07:59:22;6.00;;;3.50;;
75814;SDS011;70031;45.570;14.228;2023-06-10T08:01:23;6.32;;;3.88;;
75814;SDS011;70031;45.570;14.228;2023-06-10T08:03:24;6.50;;;4.10;;
75814;SDS011;70031;45.570;14.228;2023-06-10T08:05:24;6.18;;;4.22;;
75814;SDS011;70031;45.570;14.228;2023-06-10T08:07:26;8.45;;;4.47;;
75814;SDS011;70031;45.570;14.228;2023-06-10T08:09:26;6.38;;;4.15;;
75814;SDS011;70031;45.570;14.228;2023-06-10T08:11:26;7.53;;;5.05;;
75814;SDS011;70031;45.570;14.228;2023-06-10T08:13:28;8.43;;;5.22;;
75814;SDS011;70031;45.570;14.228;2023-06-10T08:15:28;7.50;;;5.35;;
75814;SDS011;70031;45.570;14.228;2023-06-10T08:17:29;7.25;;;4.68;;
75814;SDS011;70031;45.570;14.228;2023-06-10T08:19:30;7.18;;;4.63;;
75814;SDS011;70031;45.570;14.228;2023-06-10T08:21:30;6.53;;;4.63;;
75814;SDS011;70031;45.570;14.228;2023-06-10T08:23:31;6.40;;;4.13;;
75814;SDS011;70031;45.570;14.228;2023-06-10T08:25:31;8.32;;;5.72;;
75814;SDS011;70031;45.570;14.228;2023-06-10T08:27:34;7.65;;;4.38;;
75814;SDS011;70031;45.570;14.228;2023-06-10T08:29:34;9.02;;;5.55;;
75814;SDS011;70031;45.570;14.228;2023-06-10T08:31:35;10.13;;;5.90;;
75814;SDS011;70031;45.570;14.228;2023-06-10T08:33:35;7.55;;;4.95;;
75814;SDS011;70031;45.570;14.228;2023-06-10T08:35:36;7.38;;;4.78;;
75814;SDS011;70031;45.570;14.228;2023-06-10T08:37:36;7.03;;;4.75;;
75814;SDS011;70031;45.570;14.228;2023-06-10T08:39:36;6.47;;;4.38;;
75814;SDS011;70031;45.570;14.228;2023-06-10T08:41:39;8.63;;;5.05;;
75814;SDS011;70031;45.570;14.228;2023-06-10T08:43:48;7.15;;;4.30;;
75814;SDS011;70031;45.570;14.228;2023-06-10T08:45:55;8.38;;;5.68;;
75814;SDS011;70031;45.570;14.228;2023-06-10T08:47:59;7.63;;;4.35;;
75814;SDS011;70031;45.570;14.228;2023-06-10T08:50:02;11.25;;;6.07;;
75814;SDS011;70031;45.570;14.228;2023-06-10T08:52:04;8.43;;;5.47;;
75814;SDS011;70031;45.570;14.228;2023-06-10T08:54:10;13.25;;;6.70;;
75814;SDS011;70031;45.570;14.228;2023-06-10T08:56:15;12.15;;;6.72;;
75814;SDS011;70031;45.570;14.228;2023-06-10T08:58:17;13.73;;;7.65;;
75814;SDS011;70031;45.570;14.228;2023-06-10T09:00:19;14.82;;;7.30;;
75814;SDS011;70031;45.570;14.228;2023-06-10T09:02:20;13.70;;;7.97;;
75814;SDS011;70031;45.570;14.228;2023-06-10T09:04:21;9.85;;;6.22;;
75814;SDS011;70031;45.570;14.228;2023-06-10T09:06:23;11.85;;;6.60;;
75814;SDS011;70031;45.570;14.228;2023-06-10T09:08:25;10.10;;;6.22;;
75814;SDS011;70031;45.570;14.228;2023-06-10T09:10:25;7.32;;;5.03;;
75814;SDS011;70031;45.570;14.228;2023-06-10T09:12:26;10.35;;;5.10;;
75814;SDS011;70031;45.570;14.228;2023-06-10T09:14:27;7.72;;;5.13;;
75814;SDS011;70031;45.570;14.228;2023-06-10T09:16:27;7.50;;;4.65;;
75814;SDS011;70031;45.570;14.228;2023-06-10T09:18:28;8.55;;;5.38;;
75814;SDS011;70031;45.570;14.228;2023-06-10T09:20:28;7.70;;;4.45;;
75814;SDS011;70031;45.570;14.228;2023-06-10T09:22:29;7.90;;;5.10;;
75814;SDS011;70031;45.570;14.228;2023-06-10T09:24:29;9.43;;;5.30;;
75814;SDS011;70031;45.570;14.228;2023-06-10T09:26:30;8.85;;;5.40;;
75814;SDS011;70031;45.570;14.228;2023-06-10T09:28:31;7.63;;;4.57;;
75814;SDS011;70031;45.570;14.228;2023-06-10T09:30:32;8.32;;;4.57;;
75814;SDS011;70031;45.570;14.228;2023-06-10T09:32:37;7.35;;;4.97;;
75814;SDS011;70031;45.570;14.228;2023-06-10T09:34:38;7.82;;;4.45;;
75814;SDS011;70031;45.570;14.228;2023-06-10T09:36:40;7.90;;;5.28;;
75814;SDS011;70031;45.570;14.228;2023-06-10T09:38:41;6.25;;;4.07;;
75814;SDS011;70031;45.570;14.228;2023-06-10T09:40:51;7.53;;;4.60;;
75814;SDS011;70031;45.570;14.228;2023-06-10T09:42:56;6.57;;;3.88;;
75814;SDS011;70031;45.570;14.228;2023-06-10T09:44:58;6.65;;;4.75;;
75814;SDS011;70031;45.570;14.228;2023-06-10T09:46:59;6.63;;;4.20;;
75814;SDS011;70031;45.570;14.228;2023-06-10T09:48:59;6.25;;;3.40;;
75814;SDS011;70031;45.570;14.228;2023-06-10T09:51:00;6.13;;;3.65;;
75814;SDS011;70031;45.570;14.228;2023-06-10T09:53:00;6.25;;;3.92;;
75814;SDS011;70031;45.570;14.228;2023-06-10T09:55:02;5.72;;;3.75;;
75814;SDS011;70031;45.570;14.228;2023-06-10T09:57:06;6.50;;;4.18;;
75814;SDS011;70031;45.570;14.228;2023-06-10T09:59:09;6.78;;;4.45;;
75814;SDS011;70031;45.570;14.228;2023-06-10T10:01:10;6.43;;;4.28;;
75814;SDS011;70031;45.570;14.228;2023-06-10T10:03:11;6.90;;;4.53;;
75814;SDS011;70031;45.570;14.228;2023-06-10T10:05:22;7.00;;;4.45;;
75814;SDS011;70031;45.570;14.228;2023-06-10T10:07:23;6.35;;;4.47;;
75814;SDS011;70031;45.570;14.228;2023-06-10T10:09:23;5.65;;;3.67;;
75814;SDS011;70031;45.570;14.228;2023-06-10T10:11:24;7.65;;;4.70;;
75814;SDS011;70031;45.570;14.228;2023-06-10T10:13:26;8.43;;;5.18;;
75814;SDS011;70031;45.570;14.228;2023-06-10T10:15:28;7.22;;;4.72;;
75814;SDS011;70031;45.570;14.228;2023-06-10T10:17:32;7.10;;;4.70;;
75814;SDS011;70031;45.570;14.228;2023-06-10T10:19:35;7.00;;;4.72;;
75814;SDS011;70031;45.570;14.228;2023-06-10T10:21:43;6.95;;;4.38;;
75814;SDS011;70031;45.570;14.228;2023-06-10T10:23:52;7.07;;;4.63;;
75814;SDS011;70031;45.570;14.228;2023-06-10T10:25:58;5.90;;;3.72;;
75814;SDS011;70031;45.570;14.228;2023-06-10T10:28:06;6.95;;;4.97;;
75814;SDS011;70031;45.570;14.228;2023-06-10T10:30:10;7.25;;;4.43;;
75814;SDS011;70031;45.570;14.228;2023-06-10T10:32:11;7.57;;;4.65;;
75814;SDS011;70031;45.570;14.228;2023-06-10T10:34:14;6.95;;;4.43;;
75814;SDS011;70031;45.570;14.228;2023-06-10T10:36:19;6.55;;;4.20;;
75814;SDS011;70031;45.570;14.228;2023-06-10T10:38:19;8.07;;;5.28;;
75814;SDS011;70031;45.570;14.228;2023-06-10T10:40:21;7.15;;;4.70;;
75814;SDS011;70031;45.570;14.228;2023-06-10T10:42:23;7.00;;;3.80;;
75814;SDS011;70031;45.570;14.228;2023-06-10T10:44:24;3.35;;;2.10;;
75814;SDS011;70031;45.570;14.228;2023-06-10T10:46:26;2.95;;;1.83;;
75814;SDS011;70031;45.570;14.228;2023-06-10T10:48:26;3.40;;;1.92;;
75814;SDS011;70031;45.570;14.228;2023-06-10T10:50:33;3.28;;;1.80;;
75814;SDS011;70031;45.570;14.228;2023-06-10T10:52:46;4.30;;;1.83;;
75814;SDS011;70031;45.570;14.228;2023-06-10T10:54:56;2.47;;;1.65;;
75814;SDS011;70031;45.570;14.228;2023-06-10T10:59:09;13.13;;;4.60;;
75814;SDS011;70031;45.570;14.228;2023-06-10T11:01:10;12.70;;;6.63;;
75814;SDS011;70031;45.570;14.228;2023-06-10T11:03:17;10.02;;;6.28;;
75814;SDS011;70031;45.570;14.228;2023-06-10T11:05:17;8.85;;;4.80;;
75814;SDS011;70031;45.570;14.228;2023-06-10T11:07:19;7.25;;;4.20;;
75814;SDS011;70031;45.570;14.228;2023-06-10T11:09:25;12.95;;;4.15;;
75814;SDS011;70031;45.570;14.228;2023-06-10T11:11:30;7.72;;;4.18;;
75814;SDS011;70031;45.570;14.228;2023-06-10T11:13:32;8.80;;;5.18;;
75814;SDS011;70031;45.570;14.228;2023-06-10T11:15:33;8.23;;;4.72;;
75814;SDS011;70031;45.570;14.228;2023-06-10T11:17:37;7.28;;;3.90;;
75814;SDS011;70031;45.570;14.228;2023-06-10T11:20:41;7.57;;;4.15;;
75814;SDS011;70031;45.570;14.228;2023-06-10T11:22:58;8.68;;;4.30;;
75814;SDS011;70031;45.570;14.228;2023-06-10T11:24:59;8.65;;;3.95;;
75814;SDS011;70031;45.570;14.228;2023-06-10T11:27:18;6.88;;;4.43;;
75814;SDS011;70031;45.570;14.228;2023-06-10T11:29:19;6.45;;;3.67;;
75814;SDS011;70031;45.570;14.228;2023-06-10T11:31:21;8.02;;;4.20;;
75814;SDS011;70031;45.570;14.228;2023-06-10T11:33:23;7.78;;;4.55;;
75814;SDS011;70031;45.570;14.228;2023-06-10T11:35:25;7.55;;;3.83;;
75814;SDS011;70031;45.570;14.228;2023-06-10T11:37:27;7.70;;;3.83;;
75814;SDS011;70031;45.570;14.228;2023-06-10T11:39:27;6.88;;;3.72;;
75814;SDS011;70031;45.570;14.228;2023-06-10T11:41:30;9.30;;;4.67;;
75814;SDS011;70031;45.570;14.228;2023-06-10T11:43:31;5.78;;;3.42;;
75814;SDS011;70031;45.570;14.228;2023-06-10T11:45:32;6.40;;;3.72;;
75814;SDS011;70031;45.570;14.228;2023-06-10T11:47:32;6.60;;;3.65;;
75814;SDS011;70031;45.570;14.228;2023-06-10T11:49:32;7.30;;;3.90;;
75814;SDS011;70031;45.570;14.228;2023-06-10T11:51:36;7.07;;;4.43;;
75814;SDS011;70031;45.570;14.228;2023-06-10T11:53:38;8.93;;;4.65;;
75814;SDS011;70031;45.570;14.228;2023-06-10T11:55:45;8.63;;;4.35;;
75814;SDS011;70031;45.570;14.228;2023-06-10T11:57:47;7.03;;;3.65;;
75814;SDS011;70031;45.570;14.228;2023-06-10T11:59:48;7.93;;;4.15;;
75814;SDS011;70031;45.570;14.228;2023-06-10T12:01:49;8.07;;;4.47;;
75814;SDS011;70031;45.570;14.228;2023-06-10T12:05:59;10.23;;;4.40;;
75814;SDS011;70031;45.570;14.228;2023-06-10T12:08:10;8.25;;;5.13;;
75814;SDS011;70031;45.570;14.228;2023-06-10T12:10:12;12.23;;;5.70;;
75814;SDS011;70031;45.570;14.228;2023-06-10T12:12:12;8.85;;;5.25;;
75814;SDS011;70031;45.570;14.228;2023-06-10T12:14:13;10.02;;;5.80;;